Van Meter, IA (50261)

7:22 AM CDT on October 22, 2019 (GMT -0500)
Tilly McCreary Acreage | | Change Station
Active Advisory: Wind Advisory Active Notice: Public Information Statement

Elev 998 ft 41.59 °N, 93.99 °W | Updated 20 seconds ago

Mostly Cloudy
Mostly Cloudy
41.5 °F
Feels Like 35 °F
N
11
Wind Variable Wind from WNW
Gusts 21.0 mph

Today
High -- | Low -- °F
--% Chance of Precip.
Yesterday
High -- | Low -- °F
Precip. -- in
Pressure 29.72 in
Visibility 10.0 miles
Clouds Overcast 2500 ft
Windchill 35 °F
Dew Point 36 °F
Humidity 80%
Rainfall 0.02 in
Snow Depth Not available.
7:35 AM 6:24 PM
Last Quarter, 39% visible
METAR KDSM 221154Z 28019G34KT 10SM OVC025 06/01 A2971 RMK AO2 PK WND 27034/1146 SLP063 BINOVC 60000 70007 T00560011 10078 20056 51030
Pressure 29.72 in
Visibility 10.0 miles
Clouds Overcast 2500 ft
Windchill 35 °F
Dew Point 36 °F
Humidity 80%
Rainfall 0.02 in
Snow Depth Not available.
7:35 AM 6:24 PM
Last Quarter, 39% visible
METAR KDSM 221154Z 28019G34KT 10SM OVC025 06/01 A2971 RMK AO2 PK WND 27034/1146 SLP063 BINOVC 60000 70007 T00560011 10078 20056 51030

Get Your Daily Forecast Email!

Thanks for signing up!

Be on the lookout for a verification email in your inbox.

You'll start receiving severe weather alerts in your inbox..

×

10-Day Weather Forecast

Almanac

Astronomy

Oct. 22, 2019 Rise Set
Actual Time
Civil Twilight
Nautical Twilight
Astronomical Twilight
Moon
Length of Visible Light
Length of Day
Tomorrow will be .
, % of the Moon is Illuminated

Today's Extremes

State Highs State Lows

Community

WunderPhotos

Category 6

Welcome to Category 6. This is the collective home for Weather Underground's featured writeups by Dr. Jeff Masters (right), Bob Henson (left), Chris Burt, and other regular contributors.

Nearby

Air Quality

  Air Quality AQ Index Pollutant
Not available.

Snow Depth

Station Depth Elevation

Earthquake Activity

City Distance Mag. Time & Date
Minimum magnitude displayed is 2.5.

Coastal Water Temperatures

Place Temperature

Stations

Nearby Weather Stations

Station Location Temp. Windchill Dew Point Humidity Wind Precip. Elev Updated Type
                   

Watches & Warnings

Wind Advisory
Issued: 3:53 AM CDT Oct. 22, 2019 – National Weather Service

... Wind Advisory remains in effect until 4 PM CDT this
afternoon...

* what... west winds 25 to 30 mph with gusts up to 50 mph.

* Where... much of central Iowa.

* When... until 4 PM CDT this afternoon.

* Impacts... gusty winds could blow around unsecured objects. Tree
limbs could be blown down and a few power outages may result.
Travel will be difficult, especially for high profile vehicles
on north-south roads.

* Additional details... the strongest winds are expected to occur
this morning.

Precautionary/preparedness actions...

Use extra caution when driving, especially if operating a high
profile vehicle. Secure outdoor objects.



For more information from the National Weather Service visit